KDRM

Drummond Island Airport

Drummond Island, Michigan, USA
METAR KDRM 182135Z AUTO 21003KT 10SM CLR 24/15 A3000 RMK AO2 T02350147
Observed Flight Rules
Aug-18 @ 21:35 UTC (17 minutes ago) Visual Flight Rules
Wind Visibility Clouds
210° at 3 knots 10 miles
  • Clear skies
Temperatures Readings
Current 24°C / 75°F
Dewpoint 15°C / 59°F
Humidity 57%
Altimeter 30" Hg
Pressure 1016 hPa
Elevation 204
METAR KDRM 182135Z AUTO 21003KT 10SM CLR 24/15 A3000 RMK AO2 T02350147
Observed Flight Rules
Aug-18 @ 21:35 UTC
(17 minutes ago)
VFR
Wind Visibility
210° at 3 knots 10 miles
Clouds
  • Clear skies
Temperature Dewpoint
24°C / 75°F 15°C / 59°F
Humidity Altimeter Pressure
57% 30" Hg 1016 hPa